Time;durP1;ratioP1;P1;durP2;ratioP2;P2;SDS_P1;SDS_P2;PMS_P1;PMS_P2;Temp;Humidity;BMP_temperature;BMP_pressure;BME280_temperature;BME280_humidity;BME280_pressure;Samples;Min_cycle;Max_cycle;Signal;HPM_P1;HPM_P2
2022/04/07 00:02:06;;;;;;;;;;;;;;;10.72;64.59;99445.69;4927190;29;19942;-84
2022/04/07 00:04:32;;;;;;;;;;;;;;;10.77;63.84;99442.50;4920018;29;20331;-84
2022/04/07 00:06:57;;;;;;;;;;;;;;;10.64;64.75;99443.16;4920974;29;19926;-86
2022/04/07 00:09:23;;;;;;;;;;;;;;;10.66;64.14;99448.28;4920156;29;19947;-84
2022/04/07 00:11:48;;;;;;;;;;;;;;;10.64;64.18;99443.16;4919619;29;20295;-84
2022/04/07 00:14:14;;;;;;;;;;;;;;;10.60;63.75;99451.69;4899362;29;19974;-84
2022/04/07 00:16:39;;;;;;;;;;;;;;;10.67;63.94;99437.47;4906608;29;19986;-86
2022/04/07 00:19:05;;;;;;;;;;;;;;;10.72;63.75;99437.75;4918476;29;19927;-85
2022/04/07 00:21:38;;;;;;;;;;;;;;;10.74;63.38;99451.63;4919512;29;20367;-83
2022/04/07 00:24:04;;;;;;;;;;;;;;;10.43;64.57;99445.81;4919304;29;19919;-84
2022/04/07 00:26:29;;;;;;;;;;;;;;;10.23;65.06;99444.75;4919755;29;19943;-83
2022/04/07 00:28:55;;;;;;;;;;;;;;;9.97;65.99;99439.94;4920197;29;19915;-85
2022/04/07 00:31:20;;;;;;;;;;;;;;;9.68;66.37;99447.88;4919984;29;19923;-84
2022/04/07 00:33:46;;;;;;;;;;;;;;;9.55;66.96;99440.56;4920267;29;19942;-84
2022/04/07 00:36:11;;;;;;;;;;;;;;;9.58;66.94;99440.22;4918749;29;20014;-85
2022/04/07 00:38:38;;;;;;;;;;;;;;;9.55;67.29;99434.47;4887286;29;19927;-84
2022/04/07 00:41:03;;;;;;;;;;;;;;;9.47;66.93;99440.69;4920030;29;20379;-84
2022/04/07 00:43:29;;;;;;;;;;;;;;;9.55;66.37;99439.75;4919419;29;19926;-83
2022/04/07 00:45:56;;;;;;;;;;;;;;;9.54;65.98;99438.97;4919695;29;19919;-85
2022/04/07 00:48:21;;;;;;;;;;;;;;;9.45;66.53;99437.38;4919360;29;19923;-83
2022/04/07 00:50:47;;;;;;;;;;;;;;;9.59;65.58;99436.56;4899584;29;19952;-82
2022/04/07 00:53:13;;;;;;;;;;;;;;;9.54;64.84;99435.47;4917605;29;20334;-84
2022/04/07 00:55:42;;;;;;;;;;;;;;;9.49;65.38;99429.91;4916440;29;20442;-84
2022/04/07 00:58:08;;;;;;;;;;;;;;;9.44;65.05;99419.88;4918283;29;19925;-84
2022/04/07 01:00:37;;;;;;;;;;;;;;;9.35;65.27;99418.31;4900315;29;20022;-84
2022/04/07 01:03:02;;;;;;;;;;;;;;;9.36;65.42;99422.59;4915738;29;20018;-82
2022/04/07 01:05:28;;;;;;;;;;;;;;;9.39;64.61;99424.06;4917928;29;20009;-83
2022/04/07 01:07:53;;;;;;;;;;;;;;;9.20;64.92;99422.78;4917249;29;20295;-83
2022/04/07 01:10:19;;;;;;;;;;;;;;;9.23;65.01;99420.59;4917273;29;20287;-84
2022/04/07 01:12:45;;;;;;;;;;;;;;;9.26;65.10;99424.69;4917304;29;19930;-85
2022/04/07 01:15:11;;;;;;;;;;;;;;;9.26;64.87;99425.50;4917196;29;19995;-84
2022/04/07 01:17:38;;;;;;;;;;;;;;;9.25;64.34;99423.03;4917166;29;20001;-84
2022/04/07 01:20:04;;;;;;;;;;;;;;;9.22;65.27;99418.13;4916985;29;19923;-85
2022/04/07 01:22:30;;;;;;;;;;;;;;;9.23;64.60;99419.75;4917138;29;19915;-83
2022/04/07 01:24:56;;;;;;;;;;;;;;;9.26;64.45;99419.41;4916863;29;20006;-84
2022/04/07 01:27:21;;;;;;;;;;;;;;;9.19;65.26;99418.47;4916504;29;20342;-84
2022/04/07 01:29:47;;;;;;;;;;;;;;;9.48;64.33;99410.56;4916371;29;19926;-84
2022/04/07 01:32:18;;;;;;;;;;;;;;;9.27;64.25;99410.47;4915649;29;19919;-84
2022/04/07 01:34:43;;;;;;;;;;;;;;;9.38;63.82;99409.22;4905914;29;20367;-84
2022/04/07 01:37:09;;;;;;;;;;;;;;;9.40;63.83;99409.84;4908491;29;19926;-84
2022/04/07 01:39:36;;;;;;;;;;;;;;;9.63;63.52;99395.53;4916907;29;19930;-84
2022/04/07 01:42:01;;;;;;;;;;;;;;;9.57;63.50;99398.91;4886228;29;19958;-86
2022/04/07 01:44:28;;;;;;;;;;;;;;;9.54;63.66;99388.69;4881000;29;19969;-84
2022/04/07 01:46:54;;;;;;;;;;;;;;;9.59;63.92;99388.13;4907439;29;20352;-84
2022/04/07 01:49:20;;;;;;;;;;;;;;;9.42;65.81;99381.38;4901743;29;19959;-83
2022/04/07 01:51:50;;;;;;;;;;;;;;;9.28;66.18;99386.47;4901864;29;19919;-83
2022/04/07 01:54:18;;;;;;;;;;;;;;;9.20;66.16;99383.13;4902916;29;19942;-83
2022/04/07 01:56:44;;;;;;;;;;;;;;;9.36;65.86;99382.94;4906391;29;19919;-83
2022/04/07 01:59:10;;;;;;;;;;;;;;;9.57;64.55;99383.03;4902319;29;19923;-82
2022/04/07 02:01:36;;;;;;;;;;;;;;;9.46;64.25;99383.50;4903755;29;19966;-83
2022/04/07 02:04:04;;;;;;;;;;;;;;;9.46;64.95;99388.78;4901816;29;19919;-83
2022/04/07 02:06:30;;;;;;;;;;;;;;;9.24;64.69;99382.59;4903121;29;20375;-83
2022/04/07 02:08:56;;;;;;;;;;;;;;;9.29;64.41;99387.31;4901028;29;19929;-83
2022/04/07 02:11:22;;;;;;;;;;;;;;;9.32;64.44;99394.88;4898254;29;19919;-83
2022/04/07 02:13:48;;;;;;;;;;;;;;;9.43;63.67;99390.97;4898678;29;19919;-84
2022/04/07 02:16:14;;;;;;;;;;;;;;;9.56;62.84;99399.06;4899004;29;19965;-84
2022/04/07 02:18:39;;;;;;;;;;;;;;;9.52;63.16;99387.22;4898757;29;19966;-84
2022/04/07 02:21:05;;;;;;;;;;;;;;;9.65;62.84;99384.75;4898752;29;19926;-82
2022/04/07 02:23:30;;;;;;;;;;;;;;;9.51;63.01;99386.38;4898671;29;19926;-82
2022/04/07 02:25:56;;;;;;;;;;;;;;;9.46;63.55;99386.13;4881247;29;20025;-82
2022/04/07 02:28:21;;;;;;;;;;;;;;;9.37;63.92;99383.75;4897603;29;19919;-83
2022/04/07 02:30:47;;;;;;;;;;;;;;;9.38;64.30;99386.22;4898927;29;19919;-83
2022/04/07 02:33:12;;;;;;;;;;;;;;;9.54;63.91;99380.75;4900093;29;19923;-82
2022/04/07 02:35:40;;;;;;;;;;;;;;;9.34;64.84;99384.97;4916556;29;20017;-83
2022/04/07 02:38:06;;;;;;;;;;;;;;;9.47;64.05;99385.13;4917591;29;20399;-82
2022/04/07 02:40:31;;;;;;;;;;;;;;;9.48;64.31;99389.41;4919224;29;19926;-82
2022/04/07 02:42:57;;;;;;;;;;;;;;;9.44;65.32;99384.69;4902135;29;19915;-82
2022/04/07 02:45:22;;;;;;;;;;;;;;;9.55;64.99;99384.22;4919294;29;19919;-83
2022/04/07 02:47:48;;;;;;;;;;;;;;;9.38;65.41;99380.91;4918292;29;19959;-83
2022/04/07 02:50:13;;;;;;;;;;;;;;;9.32;66.31;99371.06;4917504;29;19938;-82
2022/04/07 02:52:39;;;;;;;;;;;;;;;9.09;68.07;99375.63;4919855;29;19926;-80
2022/04/07 02:55:05;;;;;;;;;;;;;;;8.96;69.27;99370.13;4918342;29;19919;-82
2022/04/07 02:57:34;;;;;;;;;;;;;;;9.04;68.77;99372.72;4917604;29;19963;-81
2022/04/07 03:00:01;;;;;;;;;;;;;;;9.13;68.73;99369.81;4879307;29;20278;-83
2022/04/07 03:02:26;;;;;;;;;;;;;;;9.03;69.18;99371.06;4917771;29;20007;-83
2022/04/07 03:04:52;;;;;;;;;;;;;;;9.14;69.01;99378.56;4918133;29;20260;-82
2022/04/07 03:07:19;;;;;;;;;;;;;;;9.04;69.52;99373.53;4917866;29;19922;-82
2022/04/07 03:09:45;;;;;;;;;;;;;;;8.99;70.05;99369.78;4918113;29;19927;-82
2022/04/07 03:12:11;;;;;;;;;;;;;;;8.95;70.24;99371.16;4917979;29;20294;-81
2022/04/07 03:14:36;;;;;;;;;;;;;;;8.69;71.55;99374.16;4917509;29;19919;-83
2022/04/07 03:17:02;;;;;;;;;;;;;;;8.55;72.07;99365.19;4900541;29;19919;-83
2022/04/07 03:19:28;;;;;;;;;;;;;;;8.84;70.78;99367.13;4917374;29;20010;-83
2022/04/07 03:21:53;;;;;;;;;;;;;;;8.91;70.32;99364.59;4916294;29;19919;-83
2022/04/07 03:24:18;;;;;;;;;;;;;;;8.66;71.67;99369.25;4917207;29;19919;-82
2022/04/07 03:26:44;;;;;;;;;;;;;;;8.79;71.39;99378.22;4918520;29;19929;-81
2022/04/07 03:29:10;;;;;;;;;;;;;;;8.57;72.84;99373.78;4917916;29;19961;-82
2022/04/07 03:31:35;;;;;;;;;;;;;;;8.48;73.44;99376.66;4924756;29;19965;-83
2022/04/07 03:34:01;;;;;;;;;;;;;;;8.35;74.05;99381.72;4938024;29;19971;-82
2022/04/07 03:36:29;;;;;;;;;;;;;;;8.16;74.52;99369.75;4938474;29;19939;-83
2022/04/07 03:38:55;;;;;;;;;;;;;;;8.26;74.00;99372.97;4925233;29;19931;-83
2022/04/07 03:41:20;;;;;;;;;;;;;;;8.21;73.54;99376.16;4930071;29;19926;-82
2022/04/07 03:43:45;;;;;;;;;;;;;;;8.23;73.12;99370.69;4923234;29;19919;-83
2022/04/07 03:46:11;;;;;;;;;;;;;;;8.19;74.09;99372.03;4920873;29;19974;-83
2022/04/07 03:48:36;;;;;;;;;;;;;;;8.44;72.78;99381.47;4920823;29;19919;-83
2022/04/07 03:51:02;;;;;;;;;;;;;;;8.44;72.02;99375.38;4920793;29;19919;-82
2022/04/07 03:53:29;;;;;;;;;;;;;;;8.48;71.91;99380.13;4920560;29;19919;-83
2022/04/07 03:55:54;;;;;;;;;;;;;;;8.22;73.57;99376.97;4920896;29;19974;-83
2022/04/07 03:58:19;;;;;;;;;;;;;;;8.26;74.25;99373.81;4920455;29;19919;-84
2022/04/07 04:00:45;;;;;;;;;;;;;;;8.10;75.15;99373.09;4921511;29;19919;-83
2022/04/07 04:03:10;;;;;;;;;;;;;;;8.26;74.19;99378.25;4920409;29;19975;-81
2022/04/07 04:05:36;;;;;;;;;;;;;;;7.99;76.34;99370.81;4920162;29;20362;-84
2022/04/07 04:08:01;;;;;;;;;;;;;;;8.01;76.54;99379.41;4920377;29;19919;-83
2022/04/07 04:10:27;;;;;;;;;;;;;;;7.79;78.37;99375.72;4921067;29;19923;-82
2022/04/07 04:12:52;;;;;;;;;;;;;;;7.91;77.70;99378.81;4920055;29;19919;-83
2022/04/07 04:15:18;;;;;;;;;;;;;;;8.13;76.61;99394.66;4903050;29;19979;-82
2022/04/07 04:17:43;;;;;;;;;;;;;;;8.09;77.39;99392.53;4920152;29;19915;-83
2022/04/07 04:20:09;;;;;;;;;;;;;;;7.74;79.04;99399.97;4920746;29;19942;-82
2022/04/07 04:22:36;;;;;;;;;;;;;;;7.54;80.26;99398.75;4921124;29;20066;-84
2022/04/07 04:25:02;;;;;;;;;;;;;;;7.72;78.90;99401.94;4919897;29;20017;-85
2022/04/07 04:27:27;;;;;;;;;;;;;;;7.77;78.81;99402.28;4920365;29;20410;-84
2022/04/07 04:29:53;;;;;;;;;;;;;;;7.82;78.68;99401.78;4921128;29;19919;-84
2022/04/07 04:32:18;;;;;;;;;;;;;;;8.01;77.30;99389.97;4920478;29;20391;-86
2022/04/07 04:34:43;;;;;;;;;;;;;;;7.74;79.49;99394.72;4920256;29;19919;-83
2022/04/07 04:37:09;;;;;;;;;;;;;;;7.91;78.23;99399.91;4919976;29;20009;-84
2022/04/07 04:39:34;;;;;;;;;;;;;;;8.06;77.86;99398.16;4919992;29;19922;-83
2022/04/07 04:41:59;;;;;;;;;;;;;;;8.02;78.11;99383.69;4921003;29;20022;-84
2022/04/07 04:44:25;;;;;;;;;;;;;;;8.07;76.73;99390.09;4920905;29;19919;-85
2022/04/07 04:46:50;;;;;;;;;;;;;;;7.90;78.21;99393.81;4906222;29;20286;-84
2022/04/07 04:49:16;;;;;;;;;;;;;;;7.78;79.28;99396.03;4919154;29;19919;-84
2022/04/07 04:51:41;;;;;;;;;;;;;;;7.60;80.23;99392.78;4919868;29;19969;-84
2022/04/07 04:54:06;;;;;;;;;;;;;;;7.56;81.09;99401.19;4921875;29;20363;-82
2022/04/07 04:56:32;;;;;;;;;;;;;;;7.64;81.03;99409.91;4920309;29;19915;-85
2022/04/07 04:58:58;;;;;;;;;;;;;;;7.68;80.26;99402.47;4919635;29;19976;-82
2022/04/07 05:01:24;;;;;;;;;;;;;;;7.55;82.01;99403.03;4920275;29;19968;-84
2022/04/07 05:03:49;;;;;;;;;;;;;;;7.49;82.26;99405.53;4919999;29;19970;-84
2022/04/07 05:06:17;;;;;;;;;;;;;;;7.53;82.18;99399.72;4904358;29;20434;-88
2022/04/07 05:08:46;;;;;;;;;;;;;;;7.42;82.27;99394.00;4903433;29;20006;-88
2022/04/07 05:11:11;;;;;;;;;;;;;;;7.47;83.12;99396.94;4922760;29;19961;-86
2022/04/07 05:13:43;;;;;;;;;;;;;;;7.65;83.22;99395.75;4925795;29;19919;-87
2022/04/07 05:16:15;;;;;;;;;;;;;;;7.94;81.22;99399.56;4926896;29;19918;-89
2022/04/07 05:18:46;;;;;;;;;;;;;;;7.65;81.01;99390.47;4928410;29;19922;-91
2022/04/07 05:21:28;;;;;;;;;;;;;;;7.57;81.60;99387.03;4913485;29;19946;-92
2022/04/07 05:24:02;;;;;;;;;;;;;;;7.39;81.80;99381.97;4930781;29;20018;-91
2022/04/07 05:26:28;;;;;;;;;;;;;;;7.42;81.01;99384.28;4927634;29;19919;-91
2022/04/07 05:28:53;;;;;;;;;;;;;;;7.53;81.21;99376.00;4910605;29;19926;-87
2022/04/07 05:31:19;;;;;;;;;;;;;;;7.70;79.58;99392.56;4932478;29;19926;-90
2022/04/07 05:33:44;;;;;;;;;;;;;;;8.06;78.21;99398.16;4902528;29;19942;-90
2022/04/07 05:38:51;;;;;;;;;;;;;;;8.31;75.58;99405.00;1331746;27;19928;-90
2022/04/07 05:41:17;;;;;;;;;;;;;;;8.49;75.71;99410.78;4905229;29;19919;-89
2022/04/07 05:43:42;;;;;;;;;;;;;;;9.08;72.29;99406.50;4904449;29;19917;-87
2022/04/07 05:46:07;;;;;;;;;;;;;;;9.45;71.91;99405.63;4913799;29;20329;-86
2022/04/07 05:48:33;;;;;;;;;;;;;;;9.44;70.23;99414.59;4908871;29;19919;-90
2022/04/07 05:50:59;;;;;;;;;;;;;;;9.29;70.67;99416.38;4876555;29;19928;-90
2022/04/07 05:53:25;;;;;;;;;;;;;;;9.40;71.20;99420.41;4875766;29;19916;-89
2022/04/07 05:55:50;;;;;;;;;;;;;;;10.48;67.37;99416.91;4887506;29;19949;-90
2022/04/07 05:58:16;;;;;;;;;;;;;;;10.23;67.51;99424.41;4878004;29;19920;-88
2022/04/07 06:00:41;;;;;;;;;;;;;;;10.63;66.33;99436.25;4866611;29;20396;-89
2022/04/07 06:03:06;;;;;;;;;;;;;;;11.77;60.80;99441.22;4905437;29;19919;-88
2022/04/07 06:05:32;;;;;;;;;;;;;;;11.85;58.72;99443.72;4882121;29;20326;-88
2022/04/07 06:07:58;;;;;;;;;;;;;;;12.47;56.94;99447.22;4879726;29;19919;-88
2022/04/07 06:10:24;;;;;;;;;;;;;;;12.49;56.53;99450.50;4874037;29;19926;-89
2022/04/07 06:12:49;;;;;;;;;;;;;;;12.20;57.99;99448.97;4899616;29;19919;-89
2022/04/07 06:15:15;;;;;;;;;;;;;;;12.86;56.31;99447.28;4882537;29;19942;-87
2022/04/07 06:17:42;;;;;;;;;;;;;;;13.01;55.25;99441.78;4881835;29;19920;-88
2022/04/07 06:20:10;;;;;;;;;;;;;;;12.98;55.08;99447.53;4897721;29;20452;-88
2022/04/07 06:22:35;;;;;;;;;;;;;;;14.16;50.97;99444.69;4908495;29;19923;-88
2022/04/07 06:25:01;;;;;;;;;;;;;;;14.78;48.35;99450.13;4914596;29;20322;-90
2022/04/07 06:27:33;;;;;;;;;;;;;;;15.48;47.42;99454.31;4896095;29;20020;-89
2022/04/07 06:29:59;;;;;;;;;;;;;;;15.57;46.00;99457.56;4921181;29;19915;-89
2022/04/07 06:32:27;;;;;;;;;;;;;;;16.34;44.88;99450.72;4921000;29;19959;-89
2022/04/07 06:34:56;;;;;;;;;;;;;;;15.83;45.48;99449.28;4921272;29;19923;-89
2022/04/07 06:37:21;;;;;;;;;;;;;;;15.03;47.16;99455.50;4913986;29;19946;-89
2022/04/07 06:39:50;;;;;;;;;;;;;;;15.59;45.95;99452.78;4909312;29;20383;-89
2022/04/07 06:42:16;;;;;;;;;;;;;;;16.10;44.78;99441.78;4870071;29;19920;-88
2022/04/07 06:44:42;;;;;;;;;;;;;;;15.84;45.37;99445.53;4905353;29;20015;-88
2022/04/07 06:47:07;;;;;;;;;;;;;;;15.62;45.97;99452.34;4867611;29;19927;-90
2022/04/07 06:49:33;;;;;;;;;;;;;;;15.69;46.56;99437.09;4899105;29;19922;-90
2022/04/07 06:51:58;;;;;;;;;;;;;;;15.87;46.61;99436.28;4902247;29;19923;-89
2022/04/07 06:54:26;;;;;;;;;;;;;;;15.87;46.54;99436.28;4904203;29;19918;-88
2022/04/07 06:56:51;;;;;;;;;;;;;;;16.14;45.15;99428.78;4886248;29;19923;-88
2022/04/07 06:59:17;;;;;;;;;;;;;;;16.34;45.71;99429.34;4888919;29;19926;-90
2022/04/07 07:01:42;;;;;;;;;;;;;;;15.97;46.78;99415.19;4886773;29;19978;-89
2022/04/07 07:04:07;;;;;;;;;;;;;;;15.89;46.71;99410.97;4915312;29;20026;-87
2022/04/07 07:06:33;;;;;;;;;;;;;;;15.47;46.87;99417.16;4920246;29;19919;-90
2022/04/07 07:09:00;;;;;;;;;;;;;;;15.46;47.20;99416.31;4901116;29;19971;-87
2022/04/07 07:11:26;;;;;;;;;;;;;;;16.17;45.12;99422.97;4895984;29;19916;-88
2022/04/07 07:13:51;;;;;;;;;;;;;;;16.49;44.12;99419.03;4890518;29;19916;-88
2022/04/07 07:16:17;;;;;;;;;;;;;;;16.49;43.68;99419.03;4907861;29;19923;-89
2022/04/07 07:18:42;;;;;;;;;;;;;;;16.40;44.00;99421.22;4886580;29;19919;-90
2022/04/07 07:21:08;;;;;;;;;;;;;;;16.36;45.07;99421.91;4912281;29;19979;-89
2022/04/07 07:23:34;;;;;;;;;;;;;;;16.88;43.77;99421.16;4907097;29;19920;-88
2022/04/07 07:26:00;;;;;;;;;;;;;;;17.08;42.56;99422.72;4905154;29;19926;-87
2022/04/07 07:28:26;;;;;;;;;;;;;;;16.59;44.46;99416.66;4911699;29;19919;-90
2022/04/07 07:30:51;;;;;;;;;;;;;;;15.70;47.02;99411.19;4910807;29;19919;-90
2022/04/07 07:33:20;;;;;;;;;;;;;;;16.23;45.13;99400.69;4913150;29;19919;-87
2022/04/07 07:35:46;;;;;;;;;;;;;;;16.72;44.62;99395.06;4919906;29;19933;-90
2022/04/07 07:38:11;;;;;;;;;;;;;;;16.67;44.13;99408.31;4906535;29;20391;-87
2022/04/07 07:40:38;;;;;;;;;;;;;;;16.72;45.28;99407.63;4906511;29;19919;-89
2022/04/07 07:43:04;;;;;;;;;;;;;;;16.79;45.73;99413.69;4905350;29;20004;-86
2022/04/07 07:45:34;;;;;;;;;;;;;;;16.96;45.51;99433.41;4885888;29;19927;-86
2022/04/07 07:47:59;;;;;;;;;;;;;;;16.43;46.71;99433.31;4892208;29;19923;-87
2022/04/07 07:50:28;;;;;;;;;;;;;;;16.48;46.94;99438.81;4911863;29;19922;-88
2022/04/07 07:52:53;;;;;;;;;;;;;;;16.91;46.34;99435.94;4910925;29;19962;-86
2022/04/07 07:55:19;;;;;;;;;;;;;;;16.41;46.78;99435.41;4902013;29;19923;-87
2022/04/07 08:01:14;;;;;;;;;;;;;;;16.31;46.51;99457.31;4934779;29;20010;-87
2022/04/07 08:03:39;;;;;;;;;;;;;;;16.46;46.33;99446.25;4907497;29;19908;-88
2022/04/07 08:06:04;;;;;;;;;;;;;;;16.78;45.87;99453.03;4903746;29;19911;-88
2022/04/07 08:08:30;;;;;;;;;;;;;;;17.00;45.35;99446.09;4917486;29;19911;-87
2022/04/07 08:10:56;;;;;;;;;;;;;;;17.09;43.80;99443.09;4924132;29;19907;-89
2022/04/07 08:13:23;;;;;;;;;;;;;;;17.10;43.37;99448.22;4918469;29;19923;-86
2022/04/07 08:15:49;;;;;;;;;;;;;;;17.42;42.81;99451.41;4921465;29;19919;-86
2022/04/07 08:18:14;;;;;;;;;;;;;;;17.84;41.34;99463.63;4922159;29;19973;-87
2022/04/07 08:20:40;;;;;;;;;;;;;;;17.76;42.00;99453.28;4898574;29;19990;-87
2022/04/07 08:23:09;;;;;;;;;;;;;;;18.18;40.96;99458.47;4907775;29;19923;-85
2022/04/07 08:25:37;;;;;;;;;;;;;;;18.44;40.02;99455.22;4910825;29;19946;-85
2022/04/07 08:28:11;;;;;;;;;;;;;;;18.74;40.03;99453.16;4908800;29;20497;-90
2022/04/07 08:30:37;;;;;;;;;;;;;;;18.31;41.24;99468.91;4922034;29;19969;-89
2022/04/07 08:33:06;;;;;;;;;;;;;;;19.14;39.71;99468.34;4912370;29;19919;-88
2022/04/07 08:35:31;;;;;;;;;;;;;;;19.70;38.16;99478.94;4910637;29;19962;-88
2022/04/07 08:37:57;;;;;;;;;;;;;;;20.56;36.80;99480.09;4910015;29;19927;-87
2022/04/07 08:40:27;;;;;;;;;;;;;;;20.51;36.37;99474.66;4906622;29;19946;-88
2022/04/07 08:42:52;;;;;;;;;;;;;;;20.68;36.29;99475.41;4876860;29;19938;-90
2022/04/07 08:45:17;;;;;;;;;;;;;;;21.37;36.21;99472.81;4899646;29;20287;-87
2022/04/07 08:47:46;;;;;;;;;;;;;;;20.65;36.25;99470.50;4886619;29;19919;-88
2022/04/07 08:50:12;;;;;;;;;;;;;;;21.05;35.45;99473.59;4885799;29;20292;-85
2022/04/07 08:52:38;;;;;;;;;;;;;;;20.83;35.60;99467.47;4907545;29;19926;-87
2022/04/07 08:55:05;;;;;;;;;;;;;;;21.20;35.54;99472.13;4926884;29;19910;-86
2022/04/07 08:57:32;;;;;;;;;;;;;;;21.00;36.41;99470.03;4915713;29;20291;-89
2022/04/07 08:59:57;;;;;;;;;;;;;;;20.87;36.49;99468.59;4909202;29;19954;-87
2022/04/07 09:02:23;;;;;;;;;;;;;;;21.24;35.55;99473.25;4883518;29;19926;-87
2022/04/07 09:04:48;;;;;;;;;;;;;;;20.73;36.55;99466.53;4886723;29;19923;-88
2022/04/07 09:07:14;;;;;;;;;;;;;;;20.71;35.80;99464.13;4882488;29;19926;-89
2022/04/07 09:09:40;;;;;;;;;;;;;;;21.48;34.29;99469.13;4906150;29;19919;-88
2022/04/07 09:12:06;;;;;;;;;;;;;;;20.73;35.68;99456.59;4918346;29;19922;-87
2022/04/07 09:14:38;;;;;;;;;;;;;;;21.26;35.30;99453.06;4901899;29;19919;-90
2022/04/07 09:17:04;;;;;;;;;;;;;;;21.20;35.95;99445.19;4918446;29;19966;-86
2022/04/07 09:19:30;;;;;;;;;;;;;;;20.93;36.56;99435.25;4901700;29;19923;-85
2022/04/07 09:22:09;;;;;;;;;;;;;;;21.39;35.61;99435.63;4903824;29;19919;-88
2022/04/07 09:24:36;;;;;;;;;;;;;;;21.64;34.89;99435.81;4900722;29;20294;-86
2022/04/07 09:27:05;;;;;;;;;;;;;;;21.97;34.37;99432.81;4901376;29;19915;-86
2022/04/07 09:29:40;;;;;;;;;;;;;;;22.84;32.94;99434.69;4898989;29;19920;-85
2022/04/07 09:32:16;;;;;;;;;;;;;;;22.80;32.69;99432.81;4900314;29;19926;-87
2022/04/07 09:34:43;;;;;;;;;;;;;;;23.14;32.13;99431.19;4899595;29;20547;-86
2022/04/07 09:37:09;;;;;;;;;;;;;;;22.38;33.04;99430.22;4899135;29;19923;-88
2022/04/07 09:39:39;;;;;;;;;;;;;;;22.34;32.84;99432.66;4883300;29;19920;-87
2022/04/07 09:42:20;;;;;;;;;;;;;;;21.90;33.04;99431.41;4900591;29;19973;-86
2022/04/07 09:44:53;;;;;;;;;;;;;;;22.59;33.01;99421.13;4878802;29;20447;-86
2022/04/07 09:47:19;;;;;;;;;;;;;;;23.52;30.75;99416.34;4894765;29;19963;-87
2022/04/07 09:49:45;;;;;;;;;;;;;;;23.95;30.95;99417.56;4880188;29;20332;-84
2022/04/07 09:52:11;;;;;;;;;;;;;;;24.40;29.79;99413.88;4900263;29;19973;-90
2022/04/07 09:54:39;;;;;;;;;;;;;;;24.06;30.55;99402.91;4922280;29;19911;-83
2022/04/07 09:57:05;;;;;;;;;;;;;;;23.86;30.74;99409.22;4923706;29;19919;-83
2022/04/07 09:59:31;;;;;;;;;;;;;;;23.59;30.88;99406.03;4916300;29;19919;-84
2022/04/07 10:01:57;;;;;;;;;;;;;;;23.74;31.08;99416.81;4897615;29;19922;-86
2022/04/07 10:04:22;;;;;;;;;;;;;;;24.95;28.67;99418.16;4887249;29;19958;-87
2022/04/07 10:06:48;;;;;;;;;;;;;;;24.16;29.30;99414.53;4913351;29;20371;-83
2022/04/07 10:09:14;;;;;;;;;;;;;;;24.11;29.94;99411.81;4903670;29;19923;-88
2022/04/07 10:11:39;;;;;;;;;;;;;;;24.52;30.00;99406.22;4901829;29;20006;-86
2022/04/07 10:14:05;;;;;;;;;;;;;;;24.90;29.49;99405.44;4917080;29;19919;-89
2022/04/07 10:16:30;;;;;;;;;;;;;;;23.64;31.21;99409.53;4903479;29;20523;-89
2022/04/07 10:18:59;;;;;;;;;;;;;;;24.15;30.67;99407.50;4913086;29;20079;-89
2022/04/07 10:21:27;;;;;;;;;;;;;;;23.74;31.52;99407.88;4898245;29;20484;-91
2022/04/07 10:24:11;;;;;;;;;;;;;;;24.08;31.85;99396.13;4895169;29;19923;-83
2022/04/07 10:26:39;;;;;;;;;;;;;;;23.83;31.56;99396.22;4895517;29;20593;-83
2022/04/07 10:29:05;;;;;;;;;;;;;;;23.68;31.78;99399.78;4882272;29;19972;-84
2022/04/07 10:31:32;;;;;;;;;;;;;;;23.56;32.53;99390.38;4881900;29;20408;-84
2022/04/07 10:34:09;;;;;;;;;;;;;;;23.89;31.80;99392.44;4901522;29;20291;-81
2022/04/07 10:36:40;;;;;;;;;;;;;;;23.89;31.61;99397.84;4911273;29;19926;-82
2022/04/07 10:39:15;;;;;;;;;;;;;;;24.07;31.47;99397.22;4916458;29;19994;-83
2022/04/07 10:41:40;;;;;;;;;;;;;;;23.71;32.34;99398.44;4915629;29;19923;-81
2022/04/07 10:44:07;;;;;;;;;;;;;;;23.43;32.34;99393.63;4899447;29;19942;-82
2022/04/07 10:46:33;;;;;;;;;;;;;;;23.79;32.27;99376.22;4915992;29;21497;-80
2022/04/07 10:49:00;;;;;;;;;;;;;;;23.95;32.49;99374.25;4912895;29;19923;-81
2022/04/07 10:51:45;;;;;;;;;;;;;;;24.64;31.64;99382.31;4916050;29;19915;-81
2022/04/07 10:54:12;;;;;;;;;;;;;;;25.12;30.94;99367.06;4884862;29;19926;-81
2022/04/07 10:56:41;;;;;;;;;;;;;;;24.71;31.61;99366.53;4902990;29;19984;-83
2022/04/07 10:59:21;;;;;;;;;;;;;;;25.45;31.39;99368.91;4898452;29;19923;-84
2022/04/07 11:02:04;;;;;;;;;;;;;;;26.28;29.35;99363.06;4898193;29;19920;-81
2022/04/07 11:04:30;;;;;;;;;;;;;;;25.79;29.14;99366.09;4908140;29;19923;-88
2022/04/07 11:07:15;;;;;;;;;;;;;;;25.33;29.70;99364.94;4887506;29;19969;-93
2022/04/07 11:09:50;;;;;;;;;;;;;;;26.01;30.20;99352.78;4907977;29;19991;-91
2022/04/07 11:12:18;;;;;;;;;;;;;;;25.55;30.37;99359.88;4905878;29;19946;-89
2022/04/07 11:14:46;;;;;;;;;;;;;;;25.25;30.81;99357.44;4896658;29;19976;-84
2022/04/07 11:17:25;;;;;;;;;;;;;;;25.36;30.74;99361.63;4884185;29;20304;-87
2022/04/07 11:19:55;;;;;;;;;;;;;;;25.76;30.16;99361.22;4882121;29;19927;-85
2022/04/07 11:22:41;;;;;;;;;;;;;;;25.05;31.41;99356.53;4869869;29;19948;-87
2022/04/07 11:25:08;;;;;;;;;;;;;;;24.75;31.87;99348.63;4885255;29;19927;-90
2022/04/07 11:27:52;;;;;;;;;;;;;;;25.15;31.43;99342.88;4873956;29;19916;-89
2022/04/07 11:30:18;;;;;;;;;;;;;;;25.20;30.94;99345.53;4892767;29;19920;-85
2022/04/07 11:33:03;;;;;;;;;;;;;;;25.82;30.20;99341.06;4894204;29;19920;-88
2022/04/07 11:35:29;;;;;;;;;;;;;;;26.36;29.05;99334.41;4892218;29;19934;-88
2022/04/07 11:37:57;;;;;;;;;;;;;;;26.02;29.54;99335.38;4908913;29;19928;-84
2022/04/07 11:40:23;;;;;;;;;;;;;;;26.38;29.31;99334.94;4889924;29;19965;-88
2022/04/07 11:42:49;;;;;;;;;;;;;;;26.84;29.04;99329.59;4899548;29;19919;-87
2022/04/07 11:45:18;;;;;;;;;;;;;;;26.79;28.97;99318.78;4924602;29;19975;-82
2022/04/07 11:48:04;;;;;;;;;;;;;;;26.75;29.17;99318.56;4921665;29;19926;-87
2022/04/07 11:50:30;;;;;;;;;;;;;;;27.30;28.00;99313.28;4896954;29;19923;-90
2022/04/07 11:52:56;;;;;;;;;;;;;;;26.11;29.59;99311.91;4902216;29;19927;-85
2022/04/07 11:55:31;;;;;;;;;;;;;;;24.94;31.52;99308.91;4887061;29;20269;-89
2022/04/07 11:57:59;;;;;;;;;;;;;;;23.57;33.71;99298.09;4882503;29;19951;-87
2022/04/07 12:00:32;;;;;;;;;;;;;;;22.59;35.57;99292.31;4902328;29;20319;-87
2022/04/07 12:03:04;;;;;;;;;;;;;;;21.82;36.71;99270.81;4903962;29;19908;-91
2022/04/07 12:05:32;;;;;;;;;;;;;;;21.45;38.14;99275.53;4922110;29;20060;-89
2022/04/07 12:08:24;;;;;;;;;;;;;;;21.38;38.43;99266.88;4904446;29;19932;-90
2022/04/07 12:14:15;;;;;;;;;;;;;;;20.99;39.25;99260.97;4959277;29;20330;-87
2022/04/07 12:16:45;;;;;;;;;;;;;;;20.82;40.60;99265.72;4953314;29;19919;-86
2022/04/07 12:19:10;;;;;;;;;;;;;;;20.95;40.26;99260.69;4950515;29;20009;-89
2022/04/07 12:21:50;;;;;;;;;;;;;;;21.01;39.68;99253.47;4953960;29;19919;-90
2022/04/07 12:24:18;;;;;;;;;;;;;;;20.72;40.51;99247.63;4929331;29;20391;-89
2022/04/07 12:26:45;;;;;;;;;;;;;;;20.35;41.63;99244.91;4932872;29;19958;-88
2022/04/07 12:29:18;;;;;;;;;;;;;;;20.40;41.79;99242.28;4914831;29;19929;-90
2022/04/07 12:31:44;;;;;;;;;;;;;;;20.54;40.91;99253.41;4952189;29;19918;-90
2022/04/07 12:34:16;;;;;;;;;;;;;;;20.44;41.74;99242.56;4941555;29;19990;-88
2022/04/07 12:36:42;;;;;;;;;;;;;;;20.31;42.44;99232.22;4967426;28;19950;-87
2022/04/07 12:39:26;;;;;;;;;;;;;;;20.35;42.28;99236.03;4967069;29;19923;-88
2022/04/07 12:41:54;;;;;;;;;;;;;;;20.59;41.52;99221.13;4933331;29;19951;-88
2022/04/07 12:44:33;;;;;;;;;;;;;;;20.51;42.23;99229.72;4942536;29;19919;-90
2022/04/07 12:47:01;;;;;;;;;;;;;;;20.55;42.38;99223.53;4918249;29;19946;-89
2022/04/07 12:49:31;;;;;;;;;;;;;;;20.42;42.63;99215.91;4948146;29;19934;-89
2022/04/07 12:52:15;;;;;;;;;;;;;;;20.18;43.04;99211.09;4954326;29;19978;-89
2022/04/07 12:54:59;;;;;;;;;;;;;;;20.30;43.30;99209.91;4936337;29;20382;-89
2022/04/07 12:57:34;;;;;;;;;;;;;;;20.38;43.45;99205.94;4950483;29;20326;-91
2022/04/07 13:00:06;;;;;;;;;;;;;;;20.35;43.12;99207.22;4929202;29;20375;-89
2022/04/07 13:02:41;;;;;;;;;;;;;;;20.31;42.83;99206.16;4926496;29;19961;-87